Weather History for Poteau, OK

Change the Weather History Date:

Saturday, March 2, 2013

  Actual Average (KFSM) Record (KFSM)
Temperature  
Mean Temperature 37 °F 49 °F  
Max Temperature 44 °F 60 °F 84 °F (1904)
Min Temperature 30 °F 37 °F 12 °F (1980)
Degree Days  
Heating Degree Days 28 16  
Month to date heating degree days 33  
Since 1 July heating degree days 2706  
Cooling Degree Days 0 0  
Month to date cooling degree days 0  
Year to date cooling degree days 1  
Moisture  
Dew Point 25 °F    
Average Humidity 67    
Maximum Humidity 93    
Minimum Humidity 43    
Precipitation  
Precipitation 0.00 in 0.10 in 2.34 in (1988)
Month to date precipitation 0.21  
Year to date precipitation 5.78  
Sea Level Pressure  
Sea Level Pressure 30.31 in    
Wind  
Wind Speed 8 mph (NNW)    
Max Wind Speed 16 mph    
Max Gust Speed 18 mph    
Visibility 10 miles    
Events      
T = Trace of Precipitation, MM = Missing Value Source: NWS Daily Summary

Daily Weather History Graph

Daily Weather History Graph

Search for Another Location

Airport:

Trip Planner

Search our weather history database for the weather conditions in past years. The results will help you decide how hot, cold, wet, or windy it might be!

Date:

Astronomy

Mar. 02, 2013 Rise Set
Actual Time 6:46 AM CST 6:15 PM CST
Civil Twilight 6:20 AM CST 6:40 PM CST
Nautical Twilight 5:51 AM CST 7:10 PM CST
Astronomical Twilight 5:22 AM CST 7:39 PM CST
Moon 11:41 PM CST (3/2) 9:28 AM CST (3/2)
Length of Visible Light 12h 19m
Length of Day
11h 29m
Waning Gibbous, 74% of the Moon is Illuminated
Mar 2
Waning Gibbous
Mar 4
Last Quarter
Mar 11
New
Mar 19
First Quarter
Mar 27
Full

Hourly Weather History & Observations

Time (CST) Temp. Windchill Dew Point Humidity Pressure Visibility Wind Dir Wind Speed Gust Speed Precip Events Conditions
12:35 AM 33.8 °F 27.0 °F 24.8 °F 70% 30.31 in 10.0 mi North 8.1 mph - N/A   Overcast
12:55 AM 33.8 °F 27.7 °F 23.0 °F 65% 30.31 in 10.0 mi NNW 6.9 mph - N/A   Overcast
1:15 AM 32.0 °F 24.2 °F 23.0 °F 69% 30.31 in 10.0 mi North 9.2 mph - N/A   Overcast
1:35 AM 32.0 °F 24.2 °F 23.0 °F 69% 30.32 in 10.0 mi NNW 9.2 mph - N/A   Overcast
1:55 AM 32.0 °F 24.2 °F 23.0 °F 69% 30.32 in 10.0 mi NNW 9.2 mph - N/A   Overcast
2:15 AM 32.0 °F 24.8 °F 23.0 °F 69% 30.32 in 10.0 mi NNW 8.1 mph - N/A   Overcast
2:35 AM 32.0 °F 24.8 °F 23.0 °F 69% 30.31 in 10.0 mi NNW 8.1 mph - N/A   Overcast
2:55 AM 32.0 °F 24.2 °F 23.0 °F 69% 30.31 in 10.0 mi NNW 9.2 mph - N/A   Overcast
3:15 AM 32.0 °F 24.8 °F 24.8 °F 75% 30.31 in 10.0 mi NNW 8.1 mph - N/A   Overcast
3:35 AM 32.0 °F 24.8 °F 24.8 °F 75% 30.31 in 10.0 mi NNW 8.1 mph - N/A   Overcast
3:55 AM 32.0 °F 25.6 °F 24.8 °F 75% 30.31 in 10.0 mi NW 6.9 mph - N/A   Overcast
4:15 AM 32.0 °F 24.8 °F 26.6 °F 80% 30.31 in 10.0 mi NW 8.1 mph - N/A   Scattered Clouds
4:35 AM 32.0 °F 24.2 °F 26.6 °F 80% 30.31 in 10.0 mi NNW 9.2 mph - N/A   Clear
4:55 AM 32.0 °F 26.4 °F 26.6 °F 80% 30.31 in 10.0 mi NNW 5.8 mph - N/A   Clear
5:15 AM 32.0 °F 25.6 °F 26.6 °F 80% 30.32 in 10.0 mi NW 6.9 mph - N/A   Scattered Clouds
5:35 AM 32.0 °F 24.8 °F 26.6 °F 80% 30.33 in 10.0 mi NNW 8.1 mph - N/A   Scattered Clouds
5:55 AM 32.0 °F 24.8 °F 26.6 °F 80% 30.33 in 10.0 mi NNW 8.1 mph - N/A   Clear
6:35 AM 32.0 °F 25.6 °F 26.6 °F 80% 30.34 in 10.0 mi NNW 6.9 mph - N/A   Clear
6:55 AM 30.2 °F 23.4 °F 24.8 °F 80% 30.35 in 10.0 mi NNW 6.9 mph - N/A   Clear
7:15 AM 32.0 °F 25.6 °F 26.6 °F 80% 30.35 in 10.0 mi NNW 6.9 mph - N/A   Clear
7:35 AM 32.0 °F 28.7 °F 26.6 °F 80% 30.36 in 10.0 mi NW 3.5 mph - N/A   Clear
7:55 AM 32.0 °F 25.6 °F 26.6 °F 80% 30.36 in 10.0 mi NNW 6.9 mph - N/A   Clear
8:15 AM 32.0 °F 27.5 °F 26.6 °F 80% 30.37 in 10.0 mi NNW 4.6 mph - N/A   Clear
8:35 AM 32.0 °F 24.2 °F 26.6 °F 80% 30.37 in 10.0 mi NNW 9.2 mph - N/A   Scattered Clouds
8:55 AM 33.8 °F 26.4 °F 26.6 °F 75% 30.38 in 10.0 mi NNW 9.2 mph - N/A   Clear
9:15 AM 35.6 °F 28.6 °F 28.4 °F 75% 30.38 in 10.0 mi NNW 9.2 mph - N/A   Scattered Clouds
9:35 AM 33.8 °F 27.7 °F 26.6 °F 75% 30.38 in 10.0 mi NNW 6.9 mph - N/A   Clear
9:55 AM 33.8 °F 27.0 °F 26.6 °F 75% 30.38 in 10.0 mi NW 8.1 mph - N/A   Scattered Clouds
10:15 AM 35.6 °F 28.6 °F 26.6 °F 70% 30.38 in 10.0 mi North 9.2 mph - N/A   Mostly Cloudy
10:35 AM 35.6 °F 29.2 °F 26.6 °F 70% 30.37 in 10.0 mi North 8.1 mph - N/A   Overcast
10:55 AM 35.6 °F 27.1 °F 24.8 °F 65% 30.37 in 10.0 mi NNW 12.7 mph 16.1 mph N/A   Mostly Cloudy
11:15 AM 37.4 °F 29.8 °F 26.6 °F 65% 30.37 in 10.0 mi NNW 11.5 mph - N/A   Mostly Cloudy
11:35 AM 37.4 °F 30.8 °F 24.8 °F 60% 30.37 in 10.0 mi NW 9.2 mph - N/A   Mostly Cloudy
11:55 AM 37.4 °F 31.4 °F 24.8 °F 60% 30.36 in 10.0 mi North 8.1 mph - N/A   Scattered Clouds
12:35 PM 41.0 °F 34.7 °F 26.6 °F 57% 30.34 in 10.0 mi NNE 10.4 mph - N/A   Scattered Clouds
12:55 PM 41.0 °F 34.3 °F 26.6 °F 57% 30.33 in 10.0 mi North 11.5 mph - N/A   Clear
1:15 PM 41.0 °F 34.3 °F 26.6 °F 57% 30.31 in 10.0 mi NNW 11.5 mph - N/A   Clear
1:35 PM 41.0 °F 33.9 °F 26.6 °F 57% 30.31 in 10.0 mi North 12.7 mph 16.1 mph N/A   Clear
1:55 PM 42.8 °F 36.6 °F 26.6 °F 53% 30.30 in 10.0 mi NNW 11.5 mph 18.4 mph N/A   Clear
2:15 PM 42.8 °F 35.1 °F 26.6 °F 53% 30.29 in 10.0 mi North 16.1 mph - N/A   Clear
2:35 PM 42.8 °F 36.6 °F 24.8 °F 49% 30.30 in 10.0 mi NNW 11.5 mph 18.4 mph N/A   Scattered Clouds
2:55 PM 42.8 °F 37.5 °F 24.8 °F 49% 30.29 in 10.0 mi NW 9.2 mph 17.3 mph N/A   Clear
3:15 PM 44.6 °F 39.2 °F 23.0 °F 43% 30.29 in 10.0 mi NNW 10.4 mph 17.3 mph N/A   Clear
3:35 PM 44.6 °F 38.4 °F 23.0 °F 43% 30.28 in 10.0 mi NNW 12.7 mph - N/A   Clear
3:55 PM 44.6 °F 38.1 °F 23.0 °F 43% 30.28 in 10.0 mi NNW 13.8 mph 17.3 mph N/A   Clear
4:15 PM 44.6 °F 40.2 °F 23.0 °F 43% 30.28 in 10.0 mi North 8.1 mph - N/A   Clear
4:35 PM 44.6 °F 38.8 °F 23.0 °F 43% 30.28 in 10.0 mi NNW 11.5 mph - N/A   Clear
4:55 PM 44.6 °F 40.2 °F 23.0 °F 43% 30.28 in 10.0 mi NNW 8.1 mph 16.1 mph N/A   Clear
5:15 PM 44.6 °F 39.7 °F 23.0 °F 43% 30.28 in 10.0 mi NNW 9.2 mph - N/A   Clear
5:35 PM 42.8 °F 38.0 °F 23.0 °F 46% 30.28 in 10.0 mi NW 8.1 mph - N/A   Clear
5:55 PM 42.8 °F 39.3 °F 23.0 °F 46% 30.28 in 10.0 mi NW 5.8 mph - N/A   Clear
6:15 PM 41.0 °F 39.0 °F 23.0 °F 49% 30.28 in 10.0 mi WNW 3.5 mph - N/A   Clear
6:35 PM 41.0 °F 37.1 °F 23.0 °F 49% 30.28 in 10.0 mi WNW 5.8 mph - N/A   Clear
6:55 PM 41.0 °F 39.0 °F 24.8 °F 53% 30.29 in 10.0 mi WNW 3.5 mph - N/A   Clear
7:15 PM 37.4 °F 33.8 °F 24.8 °F 60% 30.29 in 10.0 mi NW 4.6 mph - N/A   Clear
7:35 PM 37.4 °F 33.8 °F 23.0 °F 56% 30.29 in 10.0 mi NW 4.6 mph - N/A   Clear
7:55 PM 37.4 °F 34.9 °F 23.0 °F 56% 30.28 in 10.0 mi WNW 3.5 mph - N/A   Clear
8:15 PM 37.4 °F - 23.0 °F 56% 30.27 in 10.0 mi Calm Calm - N/A   Clear
8:35 PM 37.4 °F - 26.6 °F 65% 30.28 in 10.0 mi Calm Calm - N/A   Clear
8:55 PM 35.6 °F - 26.6 °F 70% 30.28 in 10.0 mi Calm Calm - N/A   Clear
9:15 PM 33.8 °F - 26.6 °F 75% 30.27 in 10.0 mi Calm Calm - N/A   Clear
9:35 PM 32.0 °F - 26.6 °F 80% 30.28 in 10.0 mi Calm Calm - N/A   Clear
9:55 PM 32.0 °F - 26.6 °F 80% 30.28 in 10.0 mi Calm Calm - N/A   Clear
10:15 PM 32.0 °F - 28.4 °F 87% 30.27 in 10.0 mi Calm Calm - N/A   Clear
10:35 PM 32.0 °F - 28.4 °F 87% 30.28 in 10.0 mi Calm Calm - N/A   Clear
10:55 PM 32.0 °F - 28.4 °F 87% 30.28 in 10.0 mi Calm Calm - N/A   Clear
11:15 PM 30.2 °F - 26.6 °F 86% 30.27 in 10.0 mi Calm Calm - N/A   Clear
11:35 PM 30.2 °F - 28.4 °F 93% 30.26 in 10.0 mi Calm Calm - N/A   Clear
11:55 PM 30.2 °F - 28.4 °F 93% 30.25 in 10.0 mi Calm Calm - N/A   Clear